sensor_id;sensor_type;location;lat;lon;timestamp;pressure;altitude;pressure_sealevel;temperature;humidity
45467;BME280;31212;49.734;8.490;2023-02-28T00:00:08;101248.81;;;-2.58;67.84
45467;BME280;31212;49.734;8.490;2023-02-28T00:02:35;101252.44;;;-2.54;68.19
45467;BME280;31212;49.734;8.490;2023-02-28T00:05:02;101261.53;;;-2.58;68.37
45467;BME280;31212;49.734;8.490;2023-02-28T00:07:29;101250.56;;;-2.57;68.30
45467;BME280;31212;49.734;8.490;2023-02-28T00:09:55;101252.34;;;-2.56;68.11
45467;BME280;31212;49.734;8.490;2023-02-28T00:12:24;101246.28;;;-2.58;68.50
45467;BME280;31212;49.734;8.490;2023-02-28T00:14:50;101247.72;;;-2.61;68.64
45467;BME280;31212;49.734;8.490;2023-02-28T00:17:17;101251.03;;;-2.62;68.85
45467;BME280;31212;49.734;8.490;2023-02-28T00:19:46;101259.56;;;-2.62;68.76
45467;BME280;31212;49.734;8.490;2023-02-28T00:22:13;101264.28;;;-2.66;68.55
45467;BME280;31212;49.734;8.490;2023-02-28T00:24:39;101264.19;;;-2.68;68.86
45467;BME280;31212;49.734;8.490;2023-02-28T00:27:06;101268.59;;;-2.65;69.56
45467;BME280;31212;49.734;8.490;2023-02-28T00:29:33;101275.91;;;-2.70;69.05
45467;BME280;31212;49.734;8.490;2023-02-28T00:32:00;101286.41;;;-2.77;69.28
45467;BME280;31212;49.734;8.490;2023-02-28T00:34:27;101288.84;;;-2.79;69.53
45467;BME280;31212;49.734;8.490;2023-02-28T00:36:53;101287.41;;;-2.75;69.41
45467;BME280;31212;49.734;8.490;2023-02-28T00:39:20;101284.75;;;-2.77;69.64
45467;BME280;31212;49.734;8.490;2023-02-28T00:41:47;101285.19;;;-2.71;69.70
45467;BME280;31212;49.734;8.490;2023-02-28T00:44:14;101296.78;;;-2.62;69.12
45467;BME280;31212;49.734;8.490;2023-02-28T00:46:41;101286.81;;;-2.59;69.87
45467;BME280;31212;49.734;8.490;2023-02-28T00:49:08;101280.97;;;-2.58;69.86
45467;BME280;31212;49.734;8.490;2023-02-28T00:51:34;101281.72;;;-2.59;70.12
45467;BME280;31212;49.734;8.490;2023-02-28T00:54:01;101280.88;;;-2.60;69.39
45467;BME280;31212;49.734;8.490;2023-02-28T00:56:27;101276.78;;;-2.69;70.22
45467;BME280;31212;49.734;8.490;2023-02-28T00:58:54;101284.06;;;-2.74;70.28
45467;BME280;31212;49.734;8.490;2023-02-28T01:01:20;101291.38;;;-2.79;70.75
45467;BME280;31212;49.734;8.490;2023-02-28T01:03:48;101299.56;;;-2.83;70.18
45467;BME280;31212;49.734;8.490;2023-02-28T01:06:15;101315.47;;;-2.85;70.75
45467;BME280;31212;49.734;8.490;2023-02-28T01:08:41;101310.41;;;-2.85;70.79
45467;BME280;31212;49.734;8.490;2023-02-28T01:11:09;101319.56;;;-2.88;70.17
45467;BME280;31212;49.734;8.490;2023-02-28T01:13:36;101317.16;;;-2.86;71.01
45467;BME280;31212;49.734;8.490;2023-02-28T01:16:03;101309.72;;;-2.83;70.54
45467;BME280;31212;49.734;8.490;2023-02-28T01:18:30;101309.72;;;-2.83;70.82
45467;BME280;31212;49.734;8.490;2023-02-28T01:20:58;101307.41;;;-2.80;71.37
45467;BME280;31212;49.734;8.490;2023-02-28T01:23:28;101296.81;;;-2.86;70.71
45467;BME280;31212;49.734;8.490;2023-02-28T01:25:55;101298.00;;;-2.81;70.68
45467;BME280;31212;49.734;8.490;2023-02-28T01:28:21;101297.44;;;-2.77;70.85
45467;BME280;31212;49.734;8.490;2023-02-28T01:30:49;101293.59;;;-2.83;70.99
45467;BME280;31212;49.734;8.490;2023-02-28T01:33:16;101291.75;;;-2.86;70.69
45467;BME280;31212;49.734;8.490;2023-02-28T01:35:42;101292.28;;;-2.90;70.85
45467;BME280;31212;49.734;8.490;2023-02-28T01:38:10;101300.44;;;-2.94;71.76
45467;BME280;31212;49.734;8.490;2023-02-28T01:40:37;101303.22;;;-3.03;71.89
45467;BME280;31212;49.734;8.490;2023-02-28T01:43:05;101308.28;;;-3.03;71.80
45467;BME280;31212;49.734;8.490;2023-02-28T01:45:36;101314.38;;;-3.01;71.85
45467;BME280;31212;49.734;8.490;2023-02-28T01:48:07;101306.09;;;-3.10;71.76
45467;BME280;31212;49.734;8.490;2023-02-28T01:50:38;101318.00;;;-3.09;71.73
45467;BME280;31212;49.734;8.490;2023-02-28T01:53:07;101313.56;;;-3.12;71.83
45467;BME280;31212;49.734;8.490;2023-02-28T01:55:38;101312.50;;;-3.15;72.13
45467;BME280;31212;49.734;8.490;2023-02-28T01:58:06;101311.72;;;-3.14;72.40
45467;BME280;31212;49.734;8.490;2023-02-28T02:00:34;101312.28;;;-3.18;72.16
45467;BME280;31212;49.734;8.490;2023-02-28T02:03:06;101322.06;;;-3.23;72.66
45467;BME280;31212;49.734;8.490;2023-02-28T02:05:36;101323.41;;;-3.28;72.34
45467;BME280;31212;49.734;8.490;2023-02-28T02:08:05;101331.00;;;-3.28;73.31
45467;BME280;31212;49.734;8.490;2023-02-28T02:10:34;101329.13;;;-3.31;73.01
45467;BME280;31212;49.734;8.490;2023-02-28T02:13:10;101333.22;;;-3.33;72.63
45467;BME280;31212;49.734;8.490;2023-02-28T02:15:49;101339.41;;;-3.29;73.33
45467;BME280;31212;49.734;8.490;2023-02-28T02:18:27;101328.69;;;-3.37;73.04
45467;BME280;31212;49.734;8.490;2023-02-28T02:24:22;101334.31;;;-3.41;73.12
45467;BME280;31212;49.734;8.490;2023-02-28T02:27:01;101338.16;;;-3.46;73.35
45467;BME280;31212;49.734;8.490;2023-02-28T02:33:04;101339.25;;;-3.55;73.48
45467;BME280;31212;49.734;8.490;2023-02-28T02:35:40;101339.13;;;-3.56;74.06
45467;BME280;31212;49.734;8.490;2023-02-28T02:38:10;101349.03;;;-3.59;74.03
45467;BME280;31212;49.734;8.490;2023-02-28T02:40:43;101345.94;;;-3.55;73.95
45467;BME280;31212;49.734;8.490;2023-02-28T02:43:15;101349.28;;;-3.56;74.28
45467;BME280;31212;49.734;8.490;2023-02-28T02:45:46;101346.22;;;-3.52;74.42
45467;BME280;31212;49.734;8.490;2023-02-28T02:48:16;101352.69;;;-3.56;74.11
45467;BME280;31212;49.734;8.490;2023-02-28T02:50:50;101347.41;;;-3.59;74.49
45467;BME280;31212;49.734;8.490;2023-02-28T02:53:19;101348.91;;;-3.61;74.38
45467;BME280;31212;49.734;8.490;2023-02-28T02:55:49;101351.81;;;-3.56;74.38
45467;BME280;31212;49.734;8.490;2023-02-28T02:58:23;101362.38;;;-3.62;74.48
45467;BME280;31212;49.734;8.490;2023-02-28T03:00:53;101355.00;;;-3.59;74.56
45467;BME280;31212;49.734;8.490;2023-02-28T03:03:21;101357.28;;;-3.62;74.58
45467;BME280;31212;49.734;8.490;2023-02-28T03:05:55;101364.03;;;-3.62;75.42
45467;BME280;31212;49.734;8.490;2023-02-28T03:08:23;101364.69;;;-3.65;74.72
45467;BME280;31212;49.734;8.490;2023-02-28T03:10:51;101366.47;;;-3.64;74.84
45467;BME280;31212;49.734;8.490;2023-02-28T03:13:42;101371.16;;;-3.68;74.73
45467;BME280;31212;49.734;8.490;2023-02-28T03:16:32;101362.34;;;-3.74;75.37
45467;BME280;31212;49.734;8.490;2023-02-28T03:19:08;101371.72;;;-3.73;75.02
45467;BME280;31212;49.734;8.490;2023-02-28T03:21:44;101361.75;;;-3.81;75.36
45467;BME280;31212;49.734;8.490;2023-02-28T03:24:18;101369.69;;;-3.89;75.26
45467;BME280;31212;49.734;8.490;2023-02-28T03:26:50;101371.84;;;-3.93;75.48
45467;BME280;31212;49.734;8.490;2023-02-28T03:29:23;101376.47;;;-3.99;75.71
45467;BME280;31212;49.734;8.490;2023-02-28T03:31:58;101384.72;;;-4.02;75.92
45467;BME280;31212;49.734;8.490;2023-02-28T03:34:31;101397.66;;;-4.09;75.85
45467;BME280;31212;49.734;8.490;2023-02-28T03:37:05;101401.00;;;-4.10;76.79
45467;BME280;31212;49.734;8.490;2023-02-28T03:39:36;101399.75;;;-4.15;76.73
45467;BME280;31212;49.734;8.490;2023-02-28T03:42:07;101400.50;;;-4.16;76.67
45467;BME280;31212;49.734;8.490;2023-02-28T03:44:38;101405.91;;;-4.12;76.90
45467;BME280;31212;49.734;8.490;2023-02-28T03:47:10;101407.28;;;-4.05;76.71
45467;BME280;31212;49.734;8.490;2023-02-28T03:49:40;101407.53;;;-4.02;76.78
45467;BME280;31212;49.734;8.490;2023-02-28T03:52:10;101411.06;;;-4.00;76.76
45467;BME280;31212;49.734;8.490;2023-02-28T03:54:41;101417.50;;;-3.93;76.50
45467;BME280;31212;49.734;8.490;2023-02-28T03:57:12;101419.50;;;-3.89;77.19
45467;BME280;31212;49.734;8.490;2023-02-28T03:59:45;101408.38;;;-3.91;77.14
45467;BME280;31212;49.734;8.490;2023-02-28T04:02:13;101416.44;;;-3.85;76.96
45467;BME280;31212;49.734;8.490;2023-02-28T04:04:40;101409.22;;;-3.80;77.20
45467;BME280;31212;49.734;8.490;2023-02-28T04:07:11;101398.81;;;-3.83;77.18
45467;BME280;31212;49.734;8.490;2023-02-28T04:09:38;101404.78;;;-3.83;77.00
45467;BME280;31212;49.734;8.490;2023-02-28T04:12:05;101402.69;;;-3.77;76.96
45467;BME280;31212;49.734;8.490;2023-02-28T04:14:31;101406.47;;;-3.72;77.14
45467;BME280;31212;49.734;8.490;2023-02-28T04:16:58;101395.56;;;-3.70;77.15
45467;BME280;31212;49.734;8.490;2023-02-28T04:19:24;101399.69;;;-3.61;77.30
45467;BME280;31212;49.734;8.490;2023-02-28T04:21:52;101394.59;;;-3.61;77.05
45467;BME280;31212;49.734;8.490;2023-02-28T04:24:22;101393.09;;;-3.59;76.99
45467;BME280;31212;49.734;8.490;2023-02-28T04:26:52;101386.22;;;-3.60;77.33
45467;BME280;31212;49.734;8.490;2023-02-28T04:29:21;101393.00;;;-3.48;77.37
45467;BME280;31212;49.734;8.490;2023-02-28T04:31:48;101389.91;;;-3.44;77.16
45467;BME280;31212;49.734;8.490;2023-02-28T04:34:14;101386.31;;;-3.36;76.93
45467;BME280;31212;49.734;8.490;2023-02-28T04:36:42;101380.72;;;-3.32;77.19
45467;BME280;31212;49.734;8.490;2023-02-28T04:39:08;101378.38;;;-3.29;76.44
45467;BME280;31212;49.734;8.490;2023-02-28T04:41:37;101380.38;;;-3.25;76.69
45467;BME280;31212;49.734;8.490;2023-02-28T04:44:04;101374.53;;;-3.24;76.63
45467;BME280;31212;49.734;8.490;2023-02-28T04:46:30;101378.72;;;-3.24;77.16
45467;BME280;31212;49.734;8.490;2023-02-28T04:48:56;101376.06;;;-3.26;76.67
45467;BME280;31212;49.734;8.490;2023-02-28T04:51:23;101377.72;;;-3.26;77.16
45467;BME280;31212;49.734;8.490;2023-02-28T04:53:50;101378.50;;;-3.27;76.76
45467;BME280;31212;49.734;8.490;2023-02-28T04:56:18;101378.72;;;-3.24;76.72
45467;BME280;31212;49.734;8.490;2023-02-28T04:58:46;101383.56;;;-3.27;76.90
45467;BME280;31212;49.734;8.490;2023-02-28T05:01:19;101389.53;;;-3.27;77.24
45467;BME280;31212;49.734;8.490;2023-02-28T05:03:46;101386.34;;;-3.24;77.30
45467;BME280;31212;49.734;8.490;2023-02-28T05:06:13;101387.88;;;-3.26;77.28
45467;BME280;31212;49.734;8.490;2023-02-28T05:08:40;101388.88;;;-3.24;77.26
45467;BME280;31212;49.734;8.490;2023-02-28T05:11:12;101391.06;;;-3.29;77.27
45467;BME280;31212;49.734;8.490;2023-02-28T05:13:39;101395.16;;;-3.31;77.38
45467;BME280;31212;49.734;8.490;2023-02-28T05:16:07;101395.03;;;-3.32;77.19
45467;BME280;31212;49.734;8.490;2023-02-28T05:18:34;101387.31;;;-3.34;77.84
45467;BME280;31212;49.734;8.490;2023-02-28T05:21:00;101395.94;;;-3.32;77.44
45467;BME280;31212;49.734;8.490;2023-02-28T05:23:28;101389.31;;;-3.30;76.90
45467;BME280;31212;49.734;8.490;2023-02-28T05:25:54;101387.66;;;-3.29;77.72
45467;BME280;31212;49.734;8.490;2023-02-28T05:28:21;101387.66;;;-3.29;77.69
45467;BME280;31212;49.734;8.490;2023-02-28T05:30:49;101390.06;;;-3.31;77.32
45467;BME280;31212;49.734;8.490;2023-02-28T05:33:16;101395.28;;;-3.29;77.62
45467;BME280;31212;49.734;8.490;2023-02-28T05:35:43;101386.13;;;-3.27;77.44
45467;BME280;31212;49.734;8.490;2023-02-28T05:38:09;101383.25;;;-3.32;77.10
45467;BME280;31212;49.734;8.490;2023-02-28T05:40:38;101378.56;;;-3.38;77.52
45467;BME280;31212;49.734;8.490;2023-02-28T05:43:04;101387.31;;;-3.34;77.57
45467;BME280;31212;49.734;8.490;2023-02-28T05:45:31;101387.75;;;-3.40;77.74
45467;BME280;31212;49.734;8.490;2023-02-28T05:47:57;101390.94;;;-3.42;77.59
45467;BME280;31212;49.734;8.490;2023-02-28T05:50:25;101395.69;;;-3.47;77.38
45467;BME280;31212;49.734;8.490;2023-02-28T05:52:51;101413.06;;;-3.51;77.56
45467;BME280;31212;49.734;8.490;2023-02-28T05:55:18;101413.63;;;-3.56;77.93
45467;BME280;31212;49.734;8.490;2023-02-28T05:57:45;101422.88;;;-3.56;77.99
45467;BME280;31212;49.734;8.490;2023-02-28T06:00:12;101416.69;;;-3.60;77.74
45467;BME280;31212;49.734;8.490;2023-02-28T06:02:40;101417.34;;;-3.62;78.14
45467;BME280;31212;49.734;8.490;2023-02-28T06:05:10;101421.13;;;-3.57;78.25
45467;BME280;31212;49.734;8.490;2023-02-28T06:07:40;101416.38;;;-3.52;77.63
45467;BME280;31212;49.734;8.490;2023-02-28T06:10:08;101417.41;;;-3.50;77.83
45467;BME280;31212;49.734;8.490;2023-02-28T06:12:34;101408.75;;;-3.52;77.70
45467;BME280;31212;49.734;8.490;2023-02-28T06:15:01;101410.75;;;-3.48;77.66
45467;BME280;31212;49.734;8.490;2023-02-28T06:17:27;101406.91;;;-3.43;77.78
45467;BME280;31212;49.734;8.490;2023-02-28T06:19:54;101397.66;;;-3.43;77.55
45467;BME280;31212;49.734;8.490;2023-02-28T06:22:20;101392.81;;;-3.40;77.83
45467;BME280;31212;49.734;8.490;2023-02-28T06:24:48;101394.94;;;-3.34;77.48
45467;BME280;31212;49.734;8.490;2023-02-28T06:27:15;101397.94;;;-3.28;77.19
45467;BME280;31212;49.734;8.490;2023-02-28T06:29:41;101391.41;;;-3.24;77.24
45467;BME280;31212;49.734;8.490;2023-02-28T06:32:08;101389.44;;;-3.16;77.02
45467;BME280;31212;49.734;8.490;2023-02-28T06:34:34;101387.59;;;-3.07;76.44
45467;BME280;31212;49.734;8.490;2023-02-28T06:37:01;101369.25;;;-3.03;76.44
45467;BME280;31212;49.734;8.490;2023-02-28T06:39:28;101367.94;;;-2.98;76.86
45467;BME280;31212;49.734;8.490;2023-02-28T06:41:56;101365.53;;;-2.96;76.49
45467;BME280;31212;49.734;8.490;2023-02-28T06:44:23;101359.00;;;-2.93;76.09
45467;BME280;31212;49.734;8.490;2023-02-28T06:46:50;101339.31;;;-2.83;75.86
45467;BME280;31212;49.734;8.490;2023-02-28T06:49:17;101338.47;;;-2.72;76.05
45467;BME280;31212;49.734;8.490;2023-02-28T06:51:44;101326.88;;;-2.68;75.44
45467;BME280;31212;49.734;8.490;2023-02-28T06:54:12;101320.22;;;-2.66;75.21
45467;BME280;31212;49.734;8.490;2023-02-28T06:56:39;101317.75;;;-2.53;74.56
45467;BME280;31212;49.734;8.490;2023-02-28T06:59:07;101310.88;;;-2.42;74.64
45467;BME280;31212;49.734;8.490;2023-02-28T07:01:33;101313.22;;;-2.33;74.56
45467;BME280;31212;49.734;8.490;2023-02-28T07:04:00;101303.81;;;-2.34;74.77
45467;BME280;31212;49.734;8.490;2023-02-28T07:06:27;101301.78;;;-2.27;74.17
45467;BME280;31212;49.734;8.490;2023-02-28T07:08:54;101295.44;;;-2.20;74.20
45467;BME280;31212;49.734;8.490;2023-02-28T07:11:21;101286.00;;;-2.09;73.93
45467;BME280;31212;49.734;8.490;2023-02-28T07:13:48;101283.53;;;-1.96;73.51
45467;BME280;31212;49.734;8.490;2023-02-28T07:16:17;101261.25;;;-1.87;72.58
45467;BME280;31212;49.734;8.490;2023-02-28T07:18:44;101256.97;;;-1.74;72.68
45467;BME280;31212;49.734;8.490;2023-02-28T07:21:11;101227.50;;;-1.71;72.57
45467;BME280;31212;49.734;8.490;2023-02-28T07:23:38;101212.75;;;-1.49;71.50
45467;BME280;31212;49.734;8.490;2023-02-28T07:26:06;101196.28;;;-1.01;71.19
45467;BME280;31212;49.734;8.490;2023-02-28T07:28:33;101141.75;;;-0.90;70.05
45467;BME280;31212;49.734;8.490;2023-02-28T07:31:03;101095.81;;;-1.05;69.44
45467;BME280;31212;49.734;8.490;2023-02-28T07:33:31;101090.16;;;-1.14;69.06
45467;BME280;31212;49.734;8.490;2023-02-28T07:36:03;101091.97;;;-1.26;69.58
45467;BME280;31212;49.734;8.490;2023-02-28T07:38:30;101103.31;;;-1.21;69.42
45467;BME280;31212;49.734;8.490;2023-02-28T07:40:57;101095.19;;;-1.29;69.35
45467;BME280;31212;49.734;8.490;2023-02-28T07:43:23;101102.25;;;-1.25;69.97
45467;BME280;31212;49.734;8.490;2023-02-28T07:45:50;101093.63;;;-1.27;69.61
45467;BME280;31212;49.734;8.490;2023-02-28T07:48:16;101103.19;;;-1.09;69.35
45467;BME280;31212;49.734;8.490;2023-02-28T07:50:44;101093.69;;;-1.12;69.00
45467;BME280;31212;49.734;8.490;2023-02-28T07:53:13;101082.00;;;-1.08;69.01
45467;BME280;31212;49.734;8.490;2023-02-28T07:55:39;101071.03;;;-1.07;68.85
45467;BME280;31212;49.734;8.490;2023-02-28T07:58:06;101066.50;;;-0.98;68.30
45467;BME280;31212;49.734;8.490;2023-02-28T08:00:32;101071.25;;;-0.89;68.47
45467;BME280;31212;49.734;8.490;2023-02-28T08:02:59;101033.84;;;-0.90;67.77
45467;BME280;31212;49.734;8.490;2023-02-28T08:05:25;101026.13;;;-0.62;67.49
45467;BME280;31212;49.734;8.490;2023-02-28T08:07:53;101033.09;;;-0.44;67.49
45467;BME280;31212;49.734;8.490;2023-02-28T08:10:19;100994.31;;;-0.39;66.40
45467;BME280;31212;49.734;8.490;2023-02-28T08:12:46;100972.69;;;-0.14;65.96
45467;BME280;31212;49.734;8.490;2023-02-28T08:15:12;100922.25;;;-0.03;65.04
45467;BME280;31212;49.734;8.490;2023-02-28T08:17:39;100904.09;;;0.24;64.61
45467;BME280;31212;49.734;8.490;2023-02-28T08:20:07;100898.81;;;0.70;63.83
45467;BME280;31212;49.734;8.490;2023-02-28T08:22:34;100825.31;;;0.48;62.74
45467;BME280;31212;49.734;8.490;2023-02-28T08:25:02;100802.00;;;0.58;62.44
45467;BME280;31212;49.734;8.490;2023-02-28T08:27:29;100777.63;;;1.01;61.58
45467;BME280;31212;49.734;8.490;2023-02-28T08:29:55;100763.53;;;1.09;61.09
45467;BME280;31212;49.734;8.490;2023-02-28T08:32:21;100767.91;;;1.30;60.93
45467;BME280;31212;49.734;8.490;2023-02-28T08:34:48;100681.72;;;1.66;59.41
45467;BME280;31212;49.734;8.490;2023-02-28T08:37:14;100625.84;;;1.37;58.89
45467;BME280;31212;49.734;8.490;2023-02-28T08:39:41;100613.53;;;2.09;58.29
45467;BME280;31212;49.734;8.490;2023-02-28T08:42:09;100527.63;;;2.63;56.21
45467;BME280;31212;49.734;8.490;2023-02-28T08:44:35;100531.81;;;4.40;54.25
45467;BME280;31212;49.734;8.490;2023-02-28T08:47:02;100396.38;;;5.36;51.35
45467;BME280;31212;49.734;8.490;2023-02-28T08:49:28;100303.44;;;4.53;50.81
45467;BME280;31212;49.734;8.490;2023-02-28T08:51:55;100277.88;;;4.61;50.37
45467;BME280;31212;49.734;8.490;2023-02-28T08:54:22;100266.59;;;4.91;49.79
45467;BME280;31212;49.734;8.490;2023-02-28T08:56:49;100277.41;;;5.51;49.35
45467;BME280;31212;49.734;8.490;2023-02-28T08:59:17;100213.53;;;5.77;48.08
45467;BME280;31212;49.734;8.490;2023-02-28T09:01:43;100188.50;;;6.66;47.14
45467;BME280;31212;49.734;8.490;2023-02-28T09:04:10;100126.31;;;5.96;46.64
45467;BME280;31212;49.734;8.490;2023-02-28T09:06:37;100090.84;;;5.81;45.58
45467;BME280;31212;49.734;8.490;2023-02-28T09:09:03;100021.25;;;5.79;45.31
45467;BME280;31212;49.734;8.490;2023-02-28T09:11:33;100106.69;;;6.02;45.85
45467;BME280;31212;49.734;8.490;2023-02-28T09:13:59;100020.13;;;5.63;45.17
45467;BME280;31212;49.734;8.490;2023-02-28T09:16:30;100090.16;;;5.44;46.16
45467;BME280;31212;49.734;8.490;2023-02-28T09:18:57;100129.31;;;5.71;45.73
45467;BME280;31212;49.734;8.490;2023-02-28T09:21:24;100088.66;;;6.02;45.37
45467;BME280;31212;49.734;8.490;2023-02-28T09:23:50;100031.84;;;5.46;44.65
45467;BME280;31212;49.734;8.490;2023-02-28T09:26:19;100077.94;;;5.79;45.40
45467;BME280;31212;49.734;8.490;2023-02-28T09:28:47;100110.63;;;5.83;45.67
45467;BME280;31212;49.734;8.490;2023-02-28T09:31:15;100105.50;;;6.95;44.43
45467;BME280;31212;49.734;8.490;2023-02-28T09:33:43;99979.81;;;6.22;42.98
45467;BME280;31212;49.734;8.490;2023-02-28T09:36:09;100032.97;;;6.75;43.61
45467;BME280;31212;49.734;8.490;2023-02-28T09:38:36;100034.13;;;5.78;44.37
45467;BME280;31212;49.734;8.490;2023-02-28T09:41:08;100122.66;;;6.93;44.00
45467;BME280;31212;49.734;8.490;2023-02-28T09:43:39;100025.09;;;6.63;42.77
45467;BME280;31212;49.734;8.490;2023-02-28T09:46:14;100018.22;;;7.43;41.88
45467;BME280;31212;49.734;8.490;2023-02-28T09:48:48;99985.19;;;7.11;42.48
45467;BME280;31212;49.734;8.490;2023-02-28T09:51:26;99991.09;;;6.29;42.68
45467;BME280;31212;49.734;8.490;2023-02-28T09:53:54;100095.78;;;7.49;42.63
45467;BME280;31212;49.734;8.490;2023-02-28T09:56:22;99997.47;;;7.32;42.27
45467;BME280;31212;49.734;8.490;2023-02-28T09:58:56;99918.16;;;7.16;41.51
45467;BME280;31212;49.734;8.490;2023-02-28T10:01:27;99868.38;;;6.42;41.54
45467;BME280;31212;49.734;8.490;2023-02-28T10:04:00;99984.88;;;5.59;43.49
45467;BME280;31212;49.734;8.490;2023-02-28T10:06:33;99931.78;;;6.27;42.58
45467;BME280;31212;49.734;8.490;2023-02-28T10:09:05;99956.75;;;6.30;42.16
45467;BME280;31212;49.734;8.490;2023-02-28T10:11:37;99907.09;;;6.46;41.67
45467;BME280;31212;49.734;8.490;2023-02-28T10:14:09;99900.25;;;6.50;41.25
45467;BME280;31212;49.734;8.490;2023-02-28T10:16:39;99794.88;;;5.38;41.22
45467;BME280;31212;49.734;8.490;2023-02-28T10:19:14;99849.81;;;6.73;40.91
45467;BME280;31212;49.734;8.490;2023-02-28T10:21:43;99766.91;;;6.36;39.98
45467;BME280;31212;49.734;8.490;2023-02-28T10:24:19;99754.88;;;4.99;40.96
45467;BME280;31212;49.734;8.490;2023-02-28T10:26:48;99903.47;;;5.15;42.36
45467;BME280;31212;49.734;8.490;2023-02-28T10:29:15;99898.97;;;5.55;41.84
45467;BME280;31212;49.734;8.490;2023-02-28T10:31:41;99923.00;;;6.83;40.89
45467;BME280;31212;49.734;8.490;2023-02-28T10:34:11;99809.66;;;7.08;38.54
45467;BME280;31212;49.734;8.490;2023-02-28T10:36:38;99838.75;;;8.32;38.15
45467;BME280;31212;49.734;8.490;2023-02-28T10:39:39;99765.50;;;9.15;36.36
45467;BME280;31212;49.734;8.490;2023-02-28T10:42:19;99675.84;;;8.47;36.55
45467;BME280;31212;49.734;8.490;2023-02-28T10:44:46;99714.63;;;8.87;36.25
45467;BME280;31212;49.734;8.490;2023-02-28T10:47:14;99681.78;;;9.17;35.83
45467;BME280;31212;49.734;8.490;2023-02-28T10:49:47;99601.69;;;8.58;35.79
45467;BME280;31212;49.734;8.490;2023-02-28T10:52:32;99702.53;;;8.17;37.16
45467;BME280;31212;49.734;8.490;2023-02-28T10:55:15;99627.19;;;6.96;37.28
45467;BME280;31212;49.734;8.490;2023-02-28T10:57:42;99700.75;;;7.96;37.25
45467;BME280;31212;49.734;8.490;2023-02-28T11:00:15;99782.47;;;7.69;38.06
45467;BME280;31212;49.734;8.490;2023-02-28T11:02:42;99641.75;;;6.82;37.68
45467;BME280;31212;49.734;8.490;2023-02-28T11:05:26;99684.22;;;6.13;38.22
45467;BME280;31212;49.734;8.490;2023-02-28T11:07:54;99772.84;;;6.28;39.58
45467;BME280;31212;49.734;8.490;2023-02-28T11:10:25;99831.56;;;7.70;37.89
45467;BME280;31212;49.734;8.490;2023-02-28T11:12:55;99782.47;;;7.63;38.10
45467;BME280;31212;49.734;8.490;2023-02-28T11:15:24;99742.47;;;6.96;38.14
45467;BME280;31212;49.734;8.490;2023-02-28T11:17:55;99738.53;;;6.35;38.46
45467;BME280;31212;49.734;8.490;2023-02-28T11:20:26;99813.19;;;6.26;39.66
45467;BME280;31212;49.734;8.490;2023-02-28T11:22:54;99769.22;;;5.43;39.96
45467;BME280;31212;49.734;8.490;2023-02-28T11:25:24;99809.97;;;5.12;40.79
45467;BME280;31212;49.734;8.490;2023-02-28T11:27:53;99890.50;;;5.08;41.42
45467;BME280;31212;49.734;8.490;2023-02-28T11:30:28;99912.34;;;5.88;40.60
45467;BME280;31212;49.734;8.490;2023-02-28T11:32:55;99871.66;;;6.28;39.98
45467;BME280;31212;49.734;8.490;2023-02-28T11:35:26;99857.91;;;6.28;39.39
45467;BME280;31212;49.734;8.490;2023-02-28T11:37:53;99885.63;;;6.49;39.48
45467;BME280;31212;49.734;8.490;2023-02-28T11:40:24;99891.81;;;6.62;39.61
45467;BME280;31212;49.734;8.490;2023-02-28T11:42:59;99856.19;;;6.27;39.40
45467;BME280;31212;49.734;8.490;2023-02-28T11:45:46;99853.03;;;6.55;39.77
45467;BME280;31212;49.734;8.490;2023-02-28T11:48:20;99818.66;;;5.81;39.96
45467;BME280;31212;49.734;8.490;2023-02-28T11:50:57;99844.41;;;5.83;40.11
45467;BME280;31212;49.734;8.490;2023-02-28T11:53:39;99914.81;;;6.43;40.33
45467;BME280;31212;49.734;8.490;2023-02-28T11:56:15;99888.06;;;6.36;39.59
45467;BME280;31212;49.734;8.490;2023-02-28T11:58:54;99932.63;;;7.00;39.24
45467;BME280;31212;49.734;8.490;2023-02-28T12:01:31;99881.81;;;6.96;38.74
45467;BME280;31212;49.734;8.490;2023-02-28T12:04:13;99889.06;;;7.37;38.53
45467;BME280;31212;49.734;8.490;2023-02-28T12:06:49;99762.19;;;6.86;37.94
45467;BME280;31212;49.734;8.490;2023-02-28T12:09:33;99835.94;;;6.64;39.19
45467;BME280;31212;49.734;8.490;2023-02-28T12:12:07;99841.56;;;6.29;39.79
45467;BME280;31212;49.734;8.490;2023-02-28T12:15:03;99879.78;;;6.64;39.57
45467;BME280;31212;49.734;8.490;2023-02-28T12:17:40;99870.81;;;6.29;40.08
45467;BME280;31212;49.734;8.490;2023-02-28T12:20:17;99933.06;;;6.62;39.98
45467;BME280;31212;49.734;8.490;2023-02-28T12:22:55;99828.16;;;6.61;39.08
45467;BME280;31212;49.734;8.490;2023-02-28T12:25:39;99884.31;;;6.85;39.64
45467;BME280;31212;49.734;8.490;2023-02-28T12:28:14;99875.75;;;6.89;38.88
45467;BME280;31212;49.734;8.490;2023-02-28T12:30:49;99874.16;;;7.05;38.58
45467;BME280;31212;49.734;8.490;2023-02-28T12:33:20;99861.09;;;6.85;39.45
45467;BME280;31212;49.734;8.490;2023-02-28T12:35:51;99841.25;;;6.81;39.33
45467;BME280;31212;49.734;8.490;2023-02-28T12:38:23;99886.06;;;6.92;39.14
45467;BME280;31212;49.734;8.490;2023-02-28T12:40:54;99867.16;;;6.90;39.24
45467;BME280;31212;49.734;8.490;2023-02-28T12:43:27;99923.34;;;7.20;39.23
45467;BME280;31212;49.734;8.490;2023-02-28T12:45:57;99850.22;;;6.31;39.98
45467;BME280;31212;49.734;8.490;2023-02-28T12:48:28;99838.69;;;6.02;40.28
45467;BME280;31212;49.734;8.490;2023-02-28T12:50:57;99984.59;;;6.59;41.16
45467;BME280;31212;49.734;8.490;2023-02-28T12:53:31;100015.06;;;6.87;40.71
45467;BME280;31212;49.734;8.490;2023-02-28T12:56:09;100002.19;;;6.90;40.13
45467;BME280;31212;49.734;8.490;2023-02-28T12:58:45;99954.75;;;6.78;40.38
45467;BME280;31212;49.734;8.490;2023-02-28T13:01:33;99968.38;;;6.66;41.07
45467;BME280;31212;49.734;8.490;2023-02-28T13:04:43;99916.41;;;6.33;40.85
45467;BME280;31212;49.734;8.490;2023-02-28T13:07:38;99948.22;;;6.37;41.04
45467;BME280;31212;49.734;8.490;2023-02-28T13:10:11;99941.34;;;6.34;40.23
45467;BME280;31212;49.734;8.490;2023-02-28T13:12:48;99966.25;;;6.34;40.74
45467;BME280;31212;49.734;8.490;2023-02-28T13:15:18;99973.00;;;6.24;41.08
45467;BME280;31212;49.734;8.490;2023-02-28T13:17:49;99951.19;;;6.02;41.64